TimeEST,TemperatureF,Dew PointF,Humidity,Sea Level PressureIn,VisibilityMPH,Wind Direction,Wind SpeedMPH,Gust SpeedMPH,PrecipitationIn,Events,Conditions,WindDirDegrees,DateUTC
12:54 AM,28.0,8.1,43,29.94,10.0,WNW,19.6,31.1,N/A,,Scattered Clouds,300,2013-01-22 05:54:00
1:54 AM,25.0,3.0,39,29.97,10.0,WNW,21.9,36.8,N/A,,Partly Cloudy,290,2013-01-22 06:54:00
2:54 AM,23.0,1.9,40,30.02,10.0,WNW,18.4,28.8,N/A,,Clear,300,2013-01-22 07:54:00
3:54 AM,21.0,1.0,42,30.04,10.0,WNW,8.1,19.6,N/A,,Partly Cloudy,300,2013-01-22 08:54:00
4:54 AM,19.9,1.9,46,30.06,10.0,WNW,12.7,-,N/A,,Partly Cloudy,300,2013-01-22 09:54:00
5:54 AM,19.0,3.0,50,30.09,10.0,West,9.2,19.6,N/A,,Partly Cloudy,280,2013-01-22 10:54:00
6:54 AM,19.0,-2.0,40,30.13,10.0,WNW,16.1,24.2,N/A,,Partly Cloudy,290,2013-01-22 11:54:00
7:54 AM,18.0,-6.0,35,30.14,10.0,WNW,21.9,38.0,N/A,,Scattered Clouds,290,2013-01-22 12:54:00
8:54 AM,18.0,-5.1,36,30.18,10.0,WNW,19.6,28.8,N/A,,Scattered Clouds,290,2013-01-22 13:54:00
9:54 AM,19.0,-5.1,34,30.21,10.0,WNW,15.0,27.6,N/A,,Scattered Clouds,290,2013-01-22 14:54:00
10:54 AM,19.0,-6.0,33,30.21,10.0,West,18.4,25.3,N/A,,Scattered Clouds,260,2013-01-22 15:54:00
11:54 AM,21.0,-6.0,30,30.19,10.0,WNW,16.1,24.2,N/A,,Scattered Clouds,290,2013-01-22 16:54:00
12:54 PM,21.0,-6.0,30,30.17,10.0,West,23.0,32.2,N/A,,Scattered Clouds,280,2013-01-22 17:54:00
1:54 PM,21.9,-5.1,30,30.16,10.0,West,19.6,25.3,N/A,,Scattered Clouds,260,2013-01-22 18:54:00
2:54 PM,23.0,-5.1,29,30.16,10.0,West,11.5,25.3,N/A,,Partly Cloudy,280,2013-01-22 19:54:00
3:54 PM,23.0,-5.1,29,30.17,10.0,WNW,16.1,23.0,N/A,,Partly Cloudy,290,2013-01-22 20:54:00
4:54 PM,21.0,-6.0,30,30.20,10.0,West,10.4,-,N/A,,Partly Cloudy,280,2013-01-22 21:54:00
5:54 PM,19.9,-5.1,33,30.23,10.0,WNW,13.8,19.6,N/A,,Partly Cloudy,300,2013-01-22 22:54:00
6:54 PM,19.0,-4.0,36,30.26,10.0,WNW,9.2,19.6,N/A,,Clear,290,2013-01-22 23:54:00
7:54 PM,18.0,-2.9,40,30.27,10.0,WNW,6.9,-,N/A,,Clear,300,2013-01-23 00:54:00
8:54 PM,18.0,-2.9,40,30.27,10.0,NW,10.4,-,N/A,,Scattered Clouds,310,2013-01-23 01:54:00
9:54 PM,18.0,-2.9,40,30.29,10.0,NW,13.8,-,N/A,,Partly Cloudy,310,2013-01-23 02:54:00
10:54 PM,16.0,-2.9,43,30.30,10.0,Variable,3.5,-,N/A,,Partly Cloudy,0,2013-01-23 03:54:00
11:54 PM,15.1,-2.0,47,30.30,10.0,NW,6.9,-,N/A,,Partly Cloudy,310,2013-01-23 04:54:00